createdAt,value
2019-01-30T00:02:11.429Z,67.38
2019-01-30T00:04:35.840Z,67.52
2019-01-30T00:07:00.245Z,67.64
2019-01-30T00:09:24.700Z,67.34
2019-01-30T00:11:49.109Z,67.45
2019-01-30T00:14:13.533Z,67.36
2019-01-30T00:16:38.111Z,67.31
2019-01-30T00:19:02.592Z,67.31
2019-01-30T00:21:27.026Z,67.44
2019-01-30T00:23:51.505Z,67.58
2019-01-30T00:26:16.005Z,67.51
2019-01-30T00:28:40.417Z,67.54
2019-01-30T00:31:04.982Z,67.38
2019-01-30T00:33:29.386Z,67.45
2019-01-30T00:35:53.974Z,67.38
2019-01-30T00:38:18.450Z,67.38
2019-01-30T00:40:42.876Z,67.56
2019-01-30T00:43:07.344Z,67.63
2019-01-30T00:45:31.754Z,67.47
2019-01-30T00:47:56.224Z,67.70
2019-01-30T00:50:24.445Z,67.75
2019-01-30T00:52:49.154Z,67.58
2019-01-30T00:55:14.488Z,67.53
2019-01-30T00:57:38.991Z,67.49
2019-01-30T01:00:14.370Z,67.49
2019-01-30T01:02:31.164Z,67.63
2019-01-30T01:04:55.701Z,67.57
2019-01-30T01:07:20.270Z,67.62
2019-01-30T01:09:44.753Z,67.70
2019-01-30T01:12:09.257Z,67.89
2019-01-30T01:14:33.721Z,67.73
2019-01-30T01:16:58.150Z,67.62
2019-01-30T01:19:22.546Z,67.58
2019-01-30T01:21:46.974Z,67.73
2019-01-30T01:24:11.511Z,67.54
2019-01-30T01:26:35.910Z,67.57
2019-01-30T01:29:00.331Z,67.69
2019-01-30T01:31:24.880Z,67.79
2019-01-30T01:33:49.308Z,67.83
2019-01-30T01:36:13.839Z,67.78
2019-01-30T01:38:38.254Z,67.63
2019-01-30T01:41:02.657Z,67.99
2019-01-30T01:43:27.100Z,67.96
2019-01-30T01:45:51.574Z,67.84
2019-01-30T01:48:16.167Z,67.94
2019-01-30T01:50:40.646Z,68.18
2019-01-30T01:53:05.325Z,67.94
2019-01-30T01:55:29.795Z,68.04
2019-01-30T01:57:54.229Z,68.15
2019-01-30T02:00:22.962Z,68.24
2019-01-30T02:02:47.502Z,68.04
2019-01-30T02:05:15.062Z,67.95
2019-01-30T02:07:39.543Z,68.03
2019-01-30T02:10:05.806Z,68.03
2019-01-30T02:12:30.203Z,68.10
2019-01-30T02:14:54.642Z,67.96
2019-01-30T02:17:24.955Z,68.15
2019-01-30T02:19:48.525Z,68.03
2019-01-30T02:22:13.081Z,67.83
2019-01-30T02:24:37.515Z,67.95
2019-01-30T02:27:01.919Z,67.96
2019-01-30T02:29:26.351Z,67.98
2019-01-30T02:31:50.745Z,68.07
2019-01-30T02:34:15.239Z,68.00
2019-01-30T02:36:41.290Z,67.99
2019-01-30T02:39:07.662Z,68.10
2019-01-30T02:41:32.032Z,68.07
2019-01-30T02:43:56.429Z,68.13
2019-01-30T02:46:20.926Z,68.28
2019-01-30T02:48:45.329Z,68.16
2019-01-30T02:51:09.830Z,68.10
2019-01-30T02:53:34.303Z,68.02
2019-01-30T02:55:58.746Z,68.21
2019-01-30T02:58:23.163Z,68.34
2019-01-30T03:00:58.550Z,68.26
2019-01-30T03:03:13.741Z,68.20
2019-01-30T03:05:38.166Z,68.12
2019-01-30T03:08:02.637Z,68.31
2019-01-30T03:10:27.114Z,68.23
2019-01-30T03:12:51.715Z,68.28
2019-01-30T03:15:17.648Z,68.54
2019-01-30T03:17:42.147Z,68.75
2019-01-30T03:20:17.696Z,69.07
2019-01-30T03:22:42.123Z,68.71
2019-01-30T03:25:09.871Z,68.75
2019-01-30T03:27:34.290Z,68.50
2019-01-30T03:29:58.698Z,68.24
2019-01-30T03:32:23.136Z,68.37
2019-01-30T03:34:47.533Z,68.60
2019-01-30T03:37:11.979Z,68.30
2019-01-30T03:39:36.386Z,68.29
2019-01-30T03:42:00.817Z,68.71
2019-01-30T03:44:25.219Z,68.63
2019-01-30T03:46:49.716Z,68.44
2019-01-30T03:49:14.126Z,68.41
2019-01-30T03:51:38.605Z,68.26
2019-01-30T03:54:03.028Z,68.31
2019-01-30T03:56:27.429Z,68.42
2019-01-30T03:58:52.009Z,68.36
2019-01-30T04:01:26.234Z,68.18
2019-01-30T04:03:44.197Z,68.30
2019-01-30T04:06:08.678Z,68.41
2019-01-30T04:08:33.115Z,68.16
2019-01-30T04:10:57.581Z,68.07
2019-01-30T04:13:22.014Z,68.41
2019-01-30T04:15:46.406Z,68.25
2019-01-30T04:18:10.838Z,68.18
2019-01-30T04:20:35.396Z,68.12
2019-01-30T04:22:59.838Z,68.30
2019-01-30T04:25:24.248Z,68.21
2019-01-30T04:27:48.743Z,68.02
2019-01-30T04:30:16.272Z,68.05
2019-01-30T04:32:40.747Z,68.08
2019-01-30T04:35:06.118Z,68.13
2019-01-30T04:37:30.515Z,68.05
2019-01-30T04:39:54.943Z,68.13
2019-01-30T04:42:19.395Z,68.13
2019-01-30T04:44:43.766Z,68.24
2019-01-30T04:47:08.178Z,68.20
2019-01-30T04:49:32.607Z,68.13
2019-01-30T04:51:57.030Z,68.13
2019-01-30T04:54:21.520Z,68.28
2019-01-30T04:56:46.000Z,68.57
2019-01-30T04:59:10.401Z,68.27
2019-01-30T05:01:34.834Z,68.39
2019-01-30T05:03:59.265Z,68.35
2019-01-30T05:06:23.694Z,68.45
2019-01-30T05:08:48.109Z,68.43
2019-01-30T05:11:12.535Z,68.51
2019-01-30T05:13:36.947Z,68.26
2019-01-30T05:16:01.655Z,68.34
2019-01-30T05:18:26.130Z,68.33
2019-01-30T05:20:50.562Z,68.35
2019-01-30T05:23:15.036Z,68.42
2019-01-30T05:25:39.477Z,68.36
2019-01-30T05:28:03.887Z,68.30
2019-01-30T05:30:33.063Z,68.23
2019-01-30T05:32:57.548Z,68.30
2019-01-30T05:35:22.026Z,68.34
2019-01-30T05:37:46.446Z,68.36
2019-01-30T05:40:16.403Z,68.22
2019-01-30T05:42:40.853Z,68.14
2019-01-30T05:45:08.246Z,68.16
2019-01-30T05:47:32.671Z,68.25
2019-01-30T05:49:57.154Z,68.31
2019-01-30T05:52:21.661Z,68.39
2019-01-30T05:54:46.087Z,68.25
2019-01-30T05:57:10.516Z,68.19
2019-01-30T05:59:34.913Z,68.12
2019-01-30T06:01:59.354Z,68.12
2019-01-30T06:04:23.747Z,68.08
2019-01-30T06:06:48.262Z,68.22
2019-01-30T06:09:12.657Z,68.26
2019-01-30T06:11:37.070Z,68.30
2019-01-30T06:14:01.500Z,68.00
2019-01-30T06:16:25.978Z,67.81
2019-01-30T06:18:50.400Z,67.90
2019-01-30T06:21:14.820Z,67.90
2019-01-30T06:23:39.250Z,68.29
2019-01-30T06:26:03.728Z,67.89
2019-01-30T06:28:29.379Z,67.69
2019-01-30T06:30:53.940Z,67.80
2019-01-30T06:33:18.453Z,67.56
2019-01-30T06:35:42.982Z,67.51
2019-01-30T06:38:07.555Z,67.41
2019-01-30T06:40:33.292Z,67.44
2019-01-30T06:42:57.874Z,67.40
2019-01-30T06:45:22.341Z,67.26
2019-01-30T06:47:46.750Z,67.38
2019-01-30T06:50:13.517Z,67.53
2019-01-30T06:52:37.936Z,67.59
2019-01-30T06:55:02.438Z,67.44
2019-01-30T06:57:26.838Z,67.37
2019-01-30T06:59:51.286Z,67.35
2019-01-30T07:02:15.828Z,67.31
2019-01-30T07:04:41.891Z,67.16
2019-01-30T07:07:06.294Z,67.88
2019-01-30T07:09:30.726Z,67.44
2019-01-30T07:11:55.193Z,67.25
2019-01-30T07:14:19.620Z,67.28
2019-01-30T07:16:44.025Z,67.29
2019-01-30T07:19:08.450Z,66.69
2019-01-30T07:21:32.885Z,66.80
2019-01-30T07:23:57.300Z,66.57
2019-01-30T07:26:21.727Z,66.53
2019-01-30T07:28:46.131Z,66.18
2019-01-30T07:31:10.636Z,65.75
2019-01-30T07:33:35.037Z,66.04
2019-01-30T07:35:59.559Z,65.93
2019-01-30T07:38:23.982Z,65.58
2019-01-30T07:40:48.553Z,66.16
2019-01-30T07:43:12.963Z,65.55
2019-01-30T07:45:37.379Z,66.00
2019-01-30T07:48:01.790Z,65.41
2019-01-30T07:50:26.356Z,65.30
2019-01-30T07:52:50.835Z,65.59
2019-01-30T07:55:16.902Z,65.23
2019-01-30T07:57:41.494Z,65.09
2019-01-30T08:00:08.946Z,65.63
2019-01-30T08:02:33.388Z,65.61
2019-01-30T08:04:57.790Z,65.21
2019-01-30T08:07:22.285Z,64.94
2019-01-30T08:09:46.690Z,64.94
2019-01-30T08:12:12.681Z,64.74
2019-01-30T08:14:37.106Z,65.05
2019-01-30T08:17:01.544Z,66.13
2019-01-30T08:19:25.934Z,65.08
2019-01-30T08:21:50.356Z,65.00
2019-01-30T08:24:15.023Z,64.83
2019-01-30T08:26:39.631Z,64.94
2019-01-30T08:29:04.290Z,64.94
2019-01-30T08:31:29.047Z,64.81
2019-01-30T08:33:53.536Z,64.31
2019-01-30T08:36:17.939Z,64.25
2019-01-30T08:38:42.387Z,64.48
2019-01-30T08:41:06.970Z,64.11
2019-01-30T08:43:31.354Z,64.03
2019-01-30T08:45:55.762Z,64.23
2019-01-30T08:48:20.181Z,64.12
2019-01-30T08:50:44.670Z,63.89
2019-01-30T08:53:09.090Z,63.84
2019-01-30T08:55:33.577Z,63.73
2019-01-30T08:57:58.144Z,64.11
2019-01-30T09:00:27.450Z,63.78
2019-01-30T09:02:51.942Z,64.07
2019-01-30T09:05:16.581Z,63.63
2019-01-30T09:07:44.428Z,64.15
2019-01-30T09:10:12.999Z,63.43
2019-01-30T09:12:37.405Z,63.49
2019-01-30T09:15:01.860Z,63.21
2019-01-30T09:17:26.325Z,62.90
2019-01-30T09:19:50.752Z,63.03
2019-01-30T09:22:15.218Z,62.92
2019-01-30T09:24:40.528Z,62.83
2019-01-30T09:27:05.006Z,62.71
2019-01-30T09:29:29.429Z,63.45
2019-01-30T09:31:53.967Z,63.05
2019-01-30T09:34:18.391Z,62.67
2019-01-30T09:36:42.831Z,62.66
2019-01-30T09:39:08.612Z,62.52
2019-01-30T09:41:33.099Z,62.86
2019-01-30T09:43:57.472Z,62.98
2019-01-30T09:46:21.946Z,62.60
2019-01-30T09:48:46.297Z,62.80
2019-01-30T09:51:10.820Z,62.44
2019-01-30T09:53:35.264Z,62.29
2019-01-30T09:55:59.705Z,61.88
2019-01-30T09:58:24.105Z,61.54
2019-01-30T10:00:48.523Z,61.32
2019-01-30T10:03:12.915Z,61.53
2019-01-30T10:05:37.470Z,61.47
2019-01-30T10:08:02.008Z,61.49
2019-01-30T10:10:37.567Z,61.39
2019-01-30T10:13:02.220Z,61.21
2019-01-30T10:15:29.425Z,61.78
2019-01-30T10:17:54.838Z,61.48
2019-01-30T10:20:23.959Z,60.98
2019-01-30T10:22:48.608Z,60.66
2019-01-30T10:25:13.262Z,60.72
2019-01-30T10:27:37.798Z,60.80
2019-01-30T10:30:02.179Z,60.41
2019-01-30T10:32:26.976Z,61.03
2019-01-30T10:34:51.369Z,60.38
2019-01-30T10:37:15.804Z,59.85
2019-01-30T10:39:40.200Z,60.59
2019-01-30T10:42:04.960Z,59.51
2019-01-30T10:44:29.345Z,59.43
2019-01-30T10:46:53.790Z,59.59
2019-01-30T10:49:18.195Z,58.91
2019-01-30T10:51:42.670Z,58.40
2019-01-30T10:54:07.175Z,58.61
2019-01-30T10:56:31.577Z,58.48
2019-01-30T10:58:56.068Z,58.13
2019-01-30T11:01:20.612Z,58.00
2019-01-30T11:03:45.138Z,57.75
2019-01-30T11:06:09.523Z,57.88
2019-01-30T11:08:34.569Z,57.43
2019-01-30T11:11:07.466Z,57.10
2019-01-30T11:13:25.162Z,56.29
2019-01-30T11:15:49.570Z,55.65
2019-01-30T11:18:14.616Z,54.51
2019-01-30T11:20:39.252Z,54.56
2019-01-30T11:23:03.837Z,54.09
2019-01-30T11:25:33.802Z,53.95
2019-01-30T11:27:58.267Z,53.37
2019-01-30T11:30:23.034Z,52.39
2019-01-30T11:32:47.603Z,51.58
2019-01-30T11:35:12.166Z,51.07
2019-01-30T11:37:36.568Z,50.23
2019-01-30T11:40:01.090Z,49.40
2019-01-30T11:42:25.820Z,46.59
2019-01-30T11:44:51.522Z,45.43
2019-01-30T11:47:16.276Z,43.05
2019-01-30T11:49:40.722Z,42.40
2019-01-30T11:52:05.379Z,42.83
2019-01-30T11:54:38.660Z,40.77
2019-01-30T11:56:55.973Z,39.35
2019-01-30T11:59:20.478Z,36.41
2019-01-30T12:01:44.962Z,36.02
2019-01-30T12:04:17.796Z,36.06
2019-01-30T12:06:35.657Z,33.54
2019-01-30T12:09:00.072Z,32.35
2019-01-30T12:11:24.508Z,33.02
2019-01-30T12:13:48.937Z,31.71
2019-01-30T12:16:13.528Z,33.65
2019-01-30T12:18:38.013Z,32.58
2019-01-30T12:21:02.453Z,32.24
2019-01-30T12:23:27.018Z,31.02
2019-01-30T12:25:51.618Z,29.23
2019-01-30T12:28:16.708Z,28.46
2019-01-30T12:30:41.310Z,28.41
2019-01-30T12:33:05.706Z,29.70
2019-01-30T12:35:30.151Z,27.85
2019-01-30T12:37:54.699Z,29.08
2019-01-30T12:40:23.228Z,30.67
2019-01-30T12:42:47.793Z,31.32
2019-01-30T12:45:15.233Z,29.64
2019-01-30T12:47:39.808Z,26.95
2019-01-30T12:50:07.538Z,27.09
2019-01-30T12:52:32.043Z,26.54
2019-01-30T12:54:56.441Z,26.49
2019-01-30T12:57:20.869Z,25.33
2019-01-30T12:59:45.349Z,24.83
2019-01-30T13:02:09.896Z,25.19
2019-01-30T13:04:38.781Z,25.76
2019-01-30T13:07:00.492Z,24.96
2019-01-30T13:09:24.863Z,27.01
2019-01-30T13:11:49.264Z,24.64
2019-01-30T13:14:13.693Z,24.50
2019-01-30T13:16:38.097Z,24.41
2019-01-30T13:19:02.528Z,25.11
2019-01-30T13:21:26.990Z,24.99
2019-01-30T13:23:51.557Z,24.26
2019-01-30T13:26:15.982Z,24.58
2019-01-30T13:28:40.410Z,24.30
2019-01-30T13:31:05.046Z,24.37
2019-01-30T13:33:29.555Z,24.43
2019-01-30T13:35:54.027Z,25.15
2019-01-30T13:38:18.469Z,26.20
2019-01-30T13:40:43.042Z,25.60
2019-01-30T13:43:07.719Z,26.32
2019-01-30T13:45:32.268Z,27.15
2019-01-30T13:47:56.922Z,29.21
2019-01-30T13:50:25.785Z,31.38
2019-01-30T13:52:50.282Z,33.26
2019-01-30T13:55:15.111Z,33.06
2019-01-30T13:57:39.669Z,34.06
2019-01-30T14:00:05.770Z,34.31
2019-01-30T14:02:30.200Z,33.66
2019-01-30T14:04:59.460Z,34.40
2019-01-30T14:07:20.745Z,36.04
2019-01-30T14:09:45.221Z,36.46
2019-01-30T14:12:09.628Z,36.87
2019-01-30T14:14:34.033Z,36.52
2019-01-30T14:16:58.454Z,37.00
2019-01-30T14:19:22.917Z,36.93
2019-01-30T14:21:47.359Z,36.59
2019-01-30T14:24:11.827Z,37.15
2019-01-30T14:26:36.386Z,39.39
2019-01-30T14:29:00.882Z,39.84
2019-01-30T14:31:25.273Z,41.33
2019-01-30T14:33:49.655Z,42.06
2019-01-30T14:36:14.202Z,42.40
2019-01-30T14:38:38.700Z,41.97
2019-01-30T14:41:03.518Z,42.11
2019-01-30T14:43:27.952Z,42.89
2019-01-30T14:45:52.330Z,43.09
2019-01-30T14:48:16.930Z,43.11
2019-01-30T14:50:41.388Z,43.58
2019-01-30T14:53:06.058Z,44.28
2019-01-30T14:55:30.449Z,44.13
2019-01-30T14:57:55.311Z,45.95
2019-01-30T15:00:27.796Z,45.43
2019-01-30T15:02:52.264Z,45.17
2019-01-30T15:05:22.277Z,45.25
2019-01-30T15:07:43.985Z,45.84
2019-01-30T15:10:11.396Z,45.80
2019-01-30T15:12:35.828Z,46.33
2019-01-30T15:15:00.254Z,46.62
2019-01-30T15:17:32.178Z,46.04
2019-01-30T15:19:56.642Z,46.29
2019-01-30T15:22:21.066Z,46.89
2019-01-30T15:24:45.463Z,46.77
2019-01-30T15:27:09.896Z,46.91
2019-01-30T15:29:34.378Z,47.95
2019-01-30T15:31:58.955Z,47.71
2019-01-30T15:34:23.361Z,47.57
2019-01-30T15:36:47.782Z,47.54
2019-01-30T15:39:12.224Z,47.84
2019-01-30T15:41:36.797Z,48.14
2019-01-30T15:44:01.309Z,48.26
2019-01-30T15:46:25.707Z,48.46
2019-01-30T15:48:50.213Z,48.61
2019-01-30T15:51:14.612Z,48.31
2019-01-30T15:53:39.059Z,48.95
2019-01-30T15:56:04.173Z,48.73
2019-01-30T15:58:28.679Z,48.67
2019-01-30T16:00:59.386Z,48.86
2019-01-30T16:03:23.820Z,49.41
2019-01-30T16:05:48.278Z,48.99
2019-01-30T16:08:12.759Z,48.93
2019-01-30T16:10:37.276Z,49.99
2019-01-30T16:13:01.798Z,49.84
2019-01-30T16:15:35.226Z,49.30
2019-01-30T16:17:59.642Z,49.73
2019-01-30T16:20:24.117Z,50.03
2019-01-30T16:22:48.666Z,50.54
2019-01-30T16:25:13.442Z,50.00
2019-01-30T16:27:37.884Z,50.01
2019-01-30T16:30:02.371Z,50.00
2019-01-30T16:32:29.823Z,50.08
2019-01-30T16:34:54.252Z,50.10
2019-01-30T16:37:18.635Z,51.01
2019-01-30T16:39:43.142Z,50.81
2019-01-30T16:42:07.529Z,51.27
2019-01-30T16:44:31.992Z,51.03
2019-01-30T16:46:56.426Z,51.27
2019-01-30T16:49:20.839Z,51.99
2019-01-30T16:51:45.289Z,51.99
2019-01-30T16:54:09.704Z,52.91
2019-01-30T16:56:34.131Z,52.02
2019-01-30T16:58:58.592Z,51.83
2019-01-30T17:01:23.031Z,52.76
2019-01-30T17:03:47.454Z,53.04
2019-01-30T17:06:12.065Z,53.54
2019-01-30T17:08:36.601Z,53.69
2019-01-30T17:11:01.038Z,53.86
2019-01-30T17:13:25.444Z,53.99
2019-01-30T17:15:49.908Z,54.23
2019-01-30T17:18:14.646Z,54.13
2019-01-30T17:20:40.699Z,53.73
2019-01-30T17:23:05.671Z,53.37
2019-01-30T17:25:30.645Z,53.11
2019-01-30T17:27:55.123Z,53.44
2019-01-30T17:30:25.478Z,53.48
2019-01-30T17:32:49.989Z,53.65
2019-01-30T17:35:14.643Z,53.41
2019-01-30T17:37:39.191Z,52.97
2019-01-30T17:40:05.543Z,53.55
2019-01-30T17:42:29.998Z,53.17
2019-01-30T17:44:54.422Z,53.02
2019-01-30T17:47:28.056Z,53.17
2019-01-30T17:49:52.484Z,53.07
2019-01-30T17:52:16.972Z,52.94
2019-01-30T17:54:41.460Z,53.12
2019-01-30T17:57:08.548Z,53.32
2019-01-30T17:59:32.990Z,53.47
2019-01-30T18:01:57.392Z,53.72
2019-01-30T18:04:21.810Z,53.41
2019-01-30T18:06:46.216Z,53.19
2019-01-30T18:09:10.843Z,53.63
2019-01-30T18:11:35.339Z,54.05
2019-01-30T18:13:59.852Z,53.96
2019-01-30T18:16:26.847Z,53.44
2019-01-30T18:18:50.517Z,54.39
2019-01-30T18:21:14.998Z,54.67
2019-01-30T18:23:39.426Z,54.24
2019-01-30T18:26:04.121Z,54.60
2019-01-30T18:28:28.531Z,54.49
2019-01-30T18:30:53.080Z,54.13
2019-01-30T18:33:17.550Z,53.75
2019-01-30T18:35:42.120Z,54.19
2019-01-30T18:38:06.774Z,54.19
2019-01-30T18:40:34.145Z,53.70
2019-01-30T18:42:58.564Z,53.59
2019-01-30T18:45:27.162Z,53.93
2019-01-30T18:47:51.645Z,54.15
2019-01-30T18:50:18.784Z,54.14
2019-01-30T18:52:43.327Z,53.98
2019-01-30T18:55:08.632Z,53.89
2019-01-30T18:57:33.109Z,54.19
2019-01-30T18:59:57.654Z,54.18
2019-01-30T19:02:32.612Z,54.21
2019-01-30T19:04:57.069Z,54.02
2019-01-30T19:07:21.522Z,54.36
2019-01-30T19:09:46.023Z,54.65
2019-01-30T19:12:10.615Z,54.57
2019-01-30T19:14:35.037Z,54.56
2019-01-30T19:16:59.553Z,54.49
2019-01-30T19:19:23.978Z,54.63
2019-01-30T19:21:48.543Z,54.34
2019-01-30T19:24:13.117Z,54.71
2019-01-30T19:26:37.695Z,54.57
2019-01-30T19:29:02.181Z,54.30
2019-01-30T19:31:26.620Z,54.31
2019-01-30T19:33:51.244Z,54.94
2019-01-30T19:36:15.645Z,54.80
2019-01-30T19:38:40.264Z,54.59
2019-01-30T19:41:04.822Z,54.85
2019-01-30T19:43:29.324Z,54.68
2019-01-30T19:45:53.737Z,54.76
2019-01-30T19:48:18.351Z,54.43
2019-01-30T19:50:42.843Z,55.09
2019-01-30T19:53:07.368Z,54.98
2019-01-30T19:55:31.881Z,54.61
2019-01-30T19:57:56.869Z,55.12
2019-01-30T20:00:23.980Z,55.01
2019-01-30T20:02:48.722Z,54.84
2019-01-30T20:05:14.709Z,54.73
2019-01-30T20:07:39.131Z,54.91
2019-01-30T20:10:05.262Z,54.92
2019-01-30T20:12:29.752Z,55.02
2019-01-30T20:14:54.327Z,55.00
2019-01-30T20:17:19.345Z,55.08
2019-01-30T20:19:43.870Z,55.11
2019-01-30T20:22:08.411Z,54.72
2019-01-30T20:24:32.843Z,55.37
2019-01-30T20:26:57.260Z,55.37
2019-01-30T20:29:24.706Z,55.39
2019-01-30T20:31:49.188Z,55.30
2019-01-30T20:34:13.650Z,55.37
2019-01-30T20:36:38.135Z,55.57
2019-01-30T20:39:02.695Z,55.74
2019-01-30T20:41:27.271Z,55.80
2019-01-30T20:43:51.680Z,55.48
2019-01-30T20:46:16.199Z,55.33
2019-01-30T20:48:47.061Z,55.49
2019-01-30T20:51:06.721Z,55.60
2019-01-30T20:53:31.124Z,55.72
2019-01-30T20:55:55.628Z,55.83
2019-01-30T20:58:20.041Z,55.57
2019-01-30T21:00:44.498Z,56.36
2019-01-30T21:03:08.884Z,55.96
2019-01-30T21:05:33.383Z,55.88
2019-01-30T21:07:58.024Z,55.92
2019-01-30T21:10:30.872Z,55.62
2019-01-30T21:12:55.363Z,55.64
2019-01-30T21:15:19.913Z,55.59
2019-01-30T21:17:44.788Z,56.66
2019-01-30T21:20:11.322Z,56.01
2019-01-30T21:22:35.838Z,57.19
2019-01-30T21:25:00.238Z,56.94
2019-01-30T21:27:24.682Z,56.34
2019-01-30T21:29:50.648Z,56.47
2019-01-30T21:32:15.301Z,56.37
2019-01-30T21:34:39.782Z,56.27
2019-01-30T21:37:04.295Z,56.50
2019-01-30T21:39:28.698Z,56.32
2019-01-30T21:41:53.141Z,56.10
2019-01-30T21:44:17.535Z,56.22
2019-01-30T21:46:41.968Z,56.20
2019-01-30T21:49:06.636Z,56.50
2019-01-30T21:51:31.131Z,56.50
2019-01-30T21:53:55.646Z,56.30
2019-01-30T21:56:20.046Z,56.31
2019-01-30T21:58:44.476Z,56.52
2019-01-30T22:01:08.866Z,56.32
2019-01-30T22:03:33.289Z,56.17
2019-01-30T22:05:57.695Z,56.31
2019-01-30T22:08:22.261Z,56.43
2019-01-30T22:10:46.733Z,56.83
2019-01-30T22:13:11.180Z,56.47
2019-01-30T22:15:35.587Z,56.62
2019-01-30T22:18:00.016Z,56.69
2019-01-30T22:20:25.966Z,56.72
2019-01-30T22:22:50.506Z,56.50
2019-01-30T22:25:20.543Z,56.54
2019-01-30T22:27:43.652Z,56.72
2019-01-30T22:30:13.923Z,56.70
2019-01-30T22:32:38.352Z,56.99
2019-01-30T22:35:02.762Z,56.99
2019-01-30T22:37:27.172Z,56.89
2019-01-30T22:39:51.611Z,56.99
2019-01-30T22:42:16.015Z,56.73
2019-01-30T22:44:40.460Z,56.64
2019-01-30T22:47:05.002Z,57.08
2019-01-30T22:49:29.433Z,56.88
2019-01-30T22:51:53.838Z,56.94
2019-01-30T22:54:18.279Z,57.45
2019-01-30T22:56:42.673Z,57.18
2019-01-30T22:59:07.104Z,57.05
2019-01-30T23:01:40.487Z,57.22
2019-01-30T23:04:13.659Z,57.10
2019-01-30T23:06:52.701Z,57.08
2019-01-30T23:09:31.371Z,56.94
2019-01-30T23:37:11.944Z,58.04
2019-01-30T23:39:45.162Z,57.79
2019-01-30T23:42:24.286Z,58.47
2019-01-30T23:45:09.648Z,57.63
2019-01-30T23:47:45.795Z,57.84
2019-01-30T23:50:22.189Z,57.62
2019-01-30T23:53:21.061Z,58.38
2019-01-30T23:55:51.489Z,61.45
2019-01-30T23:58:21.687Z,61.11
